sensor_id;sensor_type;location;lat;lon;timestamp;P1;durP1;ratioP1;P2;durP2;ratioP2
20443;SDS011;10381;53.730;10.010;2023-03-23T00:03:39;691.20;;;622.33;;
20443;SDS011;10381;53.730;10.010;2023-03-23T00:07:40;682.80;;;614.47;;
20443;SDS011;10381;53.730;10.010;2023-03-23T00:11:44;652.75;;;587.90;;
20443;SDS011;10381;53.730;10.010;2023-03-23T00:15:45;632.30;;;569.73;;
20443;SDS011;10381;53.730;10.010;2023-03-23T00:19:48;616.33;;;555.55;;
20443;SDS011;10381;53.730;10.010;2023-03-23T00:23:49;584.67;;;526.63;;
20443;SDS011;10381;53.730;10.010;2023-03-23T00:27:49;573.27;;;516.03;;
20443;SDS011;10381;53.730;10.010;2023-03-23T00:31:49;558.17;;;502.00;;
20443;SDS011;10381;53.730;10.010;2023-03-23T00:35:50;532.70;;;478.30;;
20443;SDS011;10381;53.730;10.010;2023-03-23T00:39:52;515.97;;;463.42;;
20443;SDS011;10381;53.730;10.010;2023-03-23T00:43:57;509.23;;;457.15;;
20443;SDS011;10381;53.730;10.010;2023-03-23T00:48:00;467.02;;;418.42;;
20443;SDS011;10381;53.730;10.010;2023-03-23T00:52:02;442.50;;;396.60;;
20443;SDS011;10381;53.730;10.010;2023-03-23T00:56:04;449.98;;;402.92;;
20443;SDS011;10381;53.730;10.010;2023-03-23T01:00:05;432.70;;;388.17;;
20443;SDS011;10381;53.730;10.010;2023-03-23T01:04:10;429.55;;;383.33;;
20443;SDS011;10381;53.730;10.010;2023-03-23T01:08:12;443.55;;;395.90;;
20443;SDS011;10381;53.730;10.010;2023-03-23T01:12:13;416.08;;;370.98;;
20443;SDS011;10381;53.730;10.010;2023-03-23T01:16:14;427.50;;;381.75;;
20443;SDS011;10381;53.730;10.010;2023-03-23T01:20:15;399.63;;;356.95;;
20443;SDS011;10381;53.730;10.010;2023-03-23T01:24:15;377.15;;;336.33;;
20443;SDS011;10381;53.730;10.010;2023-03-23T01:28:15;402.17;;;359.07;;
20443;SDS011;10381;53.730;10.010;2023-03-23T01:32:16;383.30;;;341.13;;
20443;SDS011;10381;53.730;10.010;2023-03-23T01:36:17;398.43;;;355.10;;
20443;SDS011;10381;53.730;10.010;2023-03-23T01:40:19;404.58;;;360.15;;
20443;SDS011;10381;53.730;10.010;2023-03-23T01:48:27;405.48;;;361.73;;
20443;SDS011;10381;53.730;10.010;2023-03-23T01:52:30;387.45;;;344.83;;
20443;SDS011;10381;53.730;10.010;2023-03-23T01:56:36;390.02;;;348.25;;
20443;SDS011;10381;53.730;10.010;2023-03-23T02:00:41;369.60;;;328.88;;
20443;SDS011;10381;53.730;10.010;2023-03-23T02:04:42;385.73;;;343.60;;
20443;SDS011;10381;53.730;10.010;2023-03-23T02:08:44;383.25;;;333.88;;
20443;SDS011;10381;53.730;10.010;2023-03-23T02:12:44;373.30;;;332.02;;
20443;SDS011;10381;53.730;10.010;2023-03-23T02:16:51;363.65;;;321.25;;
20443;SDS011;10381;53.730;10.010;2023-03-23T02:21:11;373.13;;;323.67;;
20443;SDS011;10381;53.730;10.010;2023-03-23T02:30:06;350.80;;;310.08;;
20443;SDS011;10381;53.730;10.010;2023-03-23T02:34:18;374.13;;;333.00;;
20443;SDS011;10381;53.730;10.010;2023-03-23T02:38:33;384.17;;;342.00;;
20443;SDS011;10381;53.730;10.010;2023-03-23T02:42:44;390.83;;;348.08;;
20443;SDS011;10381;53.730;10.010;2023-03-23T02:46:48;367.38;;;326.77;;
20443;SDS011;10381;53.730;10.010;2023-03-23T02:50:49;382.77;;;337.83;;
20443;SDS011;10381;53.730;10.010;2023-03-23T02:54:52;368.30;;;327.65;;
20443;SDS011;10381;53.730;10.010;2023-03-23T02:58:55;402.05;;;357.75;;
20443;SDS011;10381;53.730;10.010;2023-03-23T03:02:56;374.90;;;334.50;;
20443;SDS011;10381;53.730;10.010;2023-03-23T03:11:25;386.75;;;344.77;;
20443;SDS011;10381;53.730;10.010;2023-03-23T03:15:33;379.13;;;338.75;;
20443;SDS011;10381;53.730;10.010;2023-03-23T03:19:40;369.55;;;330.05;;
20443;SDS011;10381;53.730;10.010;2023-03-23T03:23:44;372.25;;;332.33;;
20443;SDS011;10381;53.730;10.010;2023-03-23T03:27:49;368.13;;;328.48;;
20443;SDS011;10381;53.730;10.010;2023-03-23T03:31:52;361.38;;;321.90;;
20443;SDS011;10381;53.730;10.010;2023-03-23T03:35:56;355.95;;;317.70;;
20443;SDS011;10381;53.730;10.010;2023-03-23T03:39:58;360.98;;;322.52;;
20443;SDS011;10381;53.730;10.010;2023-03-23T03:43:59;355.00;;;316.85;;
20443;SDS011;10381;53.730;10.010;2023-03-23T03:47:59;353.05;;;315.30;;
20443;SDS011;10381;53.730;10.010;2023-03-23T03:52:01;336.95;;;299.83;;
20443;SDS011;10381;53.730;10.010;2023-03-23T03:56:01;352.13;;;314.48;;
20443;SDS011;10381;53.730;10.010;2023-03-23T04:00:02;351.55;;;314.20;;
20443;SDS011;10381;53.730;10.010;2023-03-23T04:04:14;354.92;;;317.13;;
20443;SDS011;10381;53.730;10.010;2023-03-23T04:08:14;344.17;;;307.27;;
20443;SDS011;10381;53.730;10.010;2023-03-23T04:12:15;344.57;;;307.80;;
20443;SDS011;10381;53.730;10.010;2023-03-23T04:16:15;357.92;;;319.30;;
20443;SDS011;10381;53.730;10.010;2023-03-23T04:20:16;357.55;;;319.23;;
20443;SDS011;10381;53.730;10.010;2023-03-23T04:24:17;356.63;;;317.58;;
20443;SDS011;10381;53.730;10.010;2023-03-23T04:28:21;368.73;;;324.23;;
20443;SDS011;10381;53.730;10.010;2023-03-23T04:32:23;362.02;;;323.92;;
20443;SDS011;10381;53.730;10.010;2023-03-23T04:36:28;366.10;;;327.42;;
20443;SDS011;10381;53.730;10.010;2023-03-23T04:40:29;383.98;;;343.23;;
20443;SDS011;10381;53.730;10.010;2023-03-23T04:44:29;410.03;;;367.43;;
20443;SDS011;10381;53.730;10.010;2023-03-23T04:48:32;393.20;;;350.85;;
20443;SDS011;10381;53.730;10.010;2023-03-23T04:52:33;395.23;;;353.50;;
20443;SDS011;10381;53.730;10.010;2023-03-23T04:56:33;362.70;;;324.90;;
20443;SDS011;10381;53.730;10.010;2023-03-23T05:00:34;359.88;;;323.67;;
20443;SDS011;10381;53.730;10.010;2023-03-23T05:04:35;329.05;;;295.23;;
20443;SDS011;10381;53.730;10.010;2023-03-23T05:08:37;322.15;;;289.02;;
20443;SDS011;10381;53.730;10.010;2023-03-23T05:12:39;326.45;;;293.33;;
20443;SDS011;10381;53.730;10.010;2023-03-23T05:16:39;317.17;;;285.13;;
20443;SDS011;10381;53.730;10.010;2023-03-23T05:20:40;306.87;;;275.60;;
20443;SDS011;10381;53.730;10.010;2023-03-23T05:24:41;264.45;;;236.85;;
20443;SDS011;10381;53.730;10.010;2023-03-23T05:28:42;204.70;;;182.23;;
20443;SDS011;10381;53.730;10.010;2023-03-23T05:32:43;175.43;;;146.50;;
20443;SDS011;10381;53.730;10.010;2023-03-23T05:36:45;155.20;;;123.85;;
20443;SDS011;10381;53.730;10.010;2023-03-23T05:40:45;145.10;;;107.13;;
20443;SDS011;10381;53.730;10.010;2023-03-23T05:44:46;146.17;;;110.10;;
20443;SDS011;10381;53.730;10.010;2023-03-23T05:48:47;135.52;;;101.03;;
20443;SDS011;10381;53.730;10.010;2023-03-23T05:52:47;129.57;;;98.40;;
20443;SDS011;10381;53.730;10.010;2023-03-23T05:56:48;127.65;;;97.18;;
20443;SDS011;10381;53.730;10.010;2023-03-23T06:00:49;113.40;;;86.65;;
20443;SDS011;10381;53.730;10.010;2023-03-23T06:04:49;111.07;;;83.40;;
20443;SDS011;10381;53.730;10.010;2023-03-23T06:08:50;110.32;;;84.95;;
20443;SDS011;10381;53.730;10.010;2023-03-23T06:12:50;107.70;;;83.45;;
20443;SDS011;10381;53.730;10.010;2023-03-23T06:16:51;98.68;;;75.45;;
20443;SDS011;10381;53.730;10.010;2023-03-23T06:20:52;95.17;;;73.70;;
20443;SDS011;10381;53.730;10.010;2023-03-23T06:24:52;96.15;;;68.22;;
20443;SDS011;10381;53.730;10.010;2023-03-23T06:28:53;99.47;;;72.57;;
20443;SDS011;10381;53.730;10.010;2023-03-23T06:32:54;90.25;;;71.50;;
20443;SDS011;10381;53.730;10.010;2023-03-23T06:36:56;85.68;;;70.30;;
20443;SDS011;10381;53.730;10.010;2023-03-23T06:40:58;88.55;;;69.28;;
20443;SDS011;10381;53.730;10.010;2023-03-23T06:44:58;76.47;;;62.27;;
20443;SDS011;10381;53.730;10.010;2023-03-23T06:49:00;71.22;;;61.25;;
20443;SDS011;10381;53.730;10.010;2023-03-23T06:53:00;71.30;;;60.47;;
20443;SDS011;10381;53.730;10.010;2023-03-23T06:57:01;67.38;;;57.60;;
20443;SDS011;10381;53.730;10.010;2023-03-23T07:01:01;71.93;;;57.33;;
20443;SDS011;10381;53.730;10.010;2023-03-23T07:05:01;67.53;;;58.13;;
20443;SDS011;10381;53.730;10.010;2023-03-23T07:09:03;63.33;;;56.75;;
20443;SDS011;10381;53.730;10.010;2023-03-23T07:13:04;54.05;;;48.35;;
20443;SDS011;10381;53.730;10.010;2023-03-23T07:17:04;51.97;;;46.60;;
20443;SDS011;10381;53.730;10.010;2023-03-23T07:21:05;41.38;;;37.25;;
20443;SDS011;10381;53.730;10.010;2023-03-23T07:25:06;40.53;;;35.28;;
20443;SDS011;10381;53.730;10.010;2023-03-23T07:29:07;36.47;;;31.98;;
20443;SDS011;10381;53.730;10.010;2023-03-23T07:33:09;40.53;;;36.47;;
20443;SDS011;10381;53.730;10.010;2023-03-23T07:37:09;43.97;;;39.38;;
20443;SDS011;10381;53.730;10.010;2023-03-23T07:41:10;52.85;;;47.40;;
20443;SDS011;10381;53.730;10.010;2023-03-23T07:45:11;57.70;;;51.03;;
20443;SDS011;10381;53.730;10.010;2023-03-23T07:49:13;57.40;;;51.55;;
20443;SDS011;10381;53.730;10.010;2023-03-23T07:53:13;52.65;;;47.40;;
20443;SDS011;10381;53.730;10.010;2023-03-23T07:57:13;48.23;;;42.03;;
20443;SDS011;10381;53.730;10.010;2023-03-23T08:01:14;48.42;;;43.80;;
20443;SDS011;10381;53.730;10.010;2023-03-23T08:05:15;55.72;;;49.38;;
20443;SDS011;10381;53.730;10.010;2023-03-23T08:09:17;51.15;;;46.08;;
20443;SDS011;10381;53.730;10.010;2023-03-23T08:13:18;49.10;;;43.90;;
20443;SDS011;10381;53.730;10.010;2023-03-23T08:17:18;36.63;;;33.05;;
20443;SDS011;10381;53.730;10.010;2023-03-23T08:21:19;36.97;;;33.20;;
20443;SDS011;10381;53.730;10.010;2023-03-23T08:25:20;34.17;;;31.02;;
20443;SDS011;10381;53.730;10.010;2023-03-23T08:29:21;30.63;;;27.77;;
20443;SDS011;10381;53.730;10.010;2023-03-23T08:33:22;29.38;;;26.58;;
20443;SDS011;10381;53.730;10.010;2023-03-23T08:37:22;29.73;;;27.02;;
20443;SDS011;10381;53.730;10.010;2023-03-23T08:41:23;29.52;;;26.83;;
20443;SDS011;10381;53.730;10.010;2023-03-23T08:45:24;29.08;;;26.48;;
20443;SDS011;10381;53.730;10.010;2023-03-23T08:49:26;27.27;;;24.88;;
20443;SDS011;10381;53.730;10.010;2023-03-23T08:53:26;30.63;;;27.83;;
20443;SDS011;10381;53.730;10.010;2023-03-23T08:57:30;28.88;;;26.08;;
20443;SDS011;10381;53.730;10.010;2023-03-23T09:01:30;28.60;;;25.77;;
20443;SDS011;10381;53.730;10.010;2023-03-23T09:05:31;27.73;;;24.92;;
20443;SDS011;10381;53.730;10.010;2023-03-23T09:09:32;30.35;;;27.23;;
20443;SDS011;10381;53.730;10.010;2023-03-23T09:13:34;28.05;;;25.20;;
20443;SDS011;10381;53.730;10.010;2023-03-23T09:17:36;28.65;;;26.10;;
20443;SDS011;10381;53.730;10.010;2023-03-23T09:21:38;28.45;;;25.67;;
20443;SDS011;10381;53.730;10.010;2023-03-23T09:25:39;24.47;;;22.00;;
20443;SDS011;10381;53.730;10.010;2023-03-23T09:29:39;23.67;;;20.75;;
20443;SDS011;10381;53.730;10.010;2023-03-23T09:33:40;23.77;;;20.05;;
20443;SDS011;10381;53.730;10.010;2023-03-23T09:37:42;23.58;;;21.38;;
20443;SDS011;10381;53.730;10.010;2023-03-23T09:41:50;20.80;;;18.70;;
20443;SDS011;10381;53.730;10.010;2023-03-23T09:50:32;21.48;;;17.42;;
20443;SDS011;10381;53.730;10.010;2023-03-23T09:54:42;19.40;;;17.27;;
20443;SDS011;10381;53.730;10.010;2023-03-23T09:59:00;21.70;;;16.58;;
20443;SDS011;10381;53.730;10.010;2023-03-23T10:03:16;22.00;;;16.92;;
20443;SDS011;10381;53.730;10.010;2023-03-23T10:07:20;17.63;;;15.05;;
20443;SDS011;10381;53.730;10.010;2023-03-23T10:15:26;17.25;;;14.80;;
20443;SDS011;10381;53.730;10.010;2023-03-23T10:19:35;19.88;;;15.52;;
20443;SDS011;10381;53.730;10.010;2023-03-23T10:24:03;22.65;;;15.90;;
20443;SDS011;10381;53.730;10.010;2023-03-23T10:28:11;18.80;;;16.00;;
20443;SDS011;10381;53.730;10.010;2023-03-23T10:32:17;17.45;;;15.38;;
20443;SDS011;10381;53.730;10.010;2023-03-23T10:36:23;20.50;;;15.10;;
20443;SDS011;10381;53.730;10.010;2023-03-23T10:40:29;23.88;;;17.85;;
20443;SDS011;10381;53.730;10.010;2023-03-23T10:44:30;19.75;;;16.52;;
20443;SDS011;10381;53.730;10.010;2023-03-23T10:48:33;22.48;;;16.92;;
20443;SDS011;10381;53.730;10.010;2023-03-23T10:52:39;27.75;;;17.95;;
20443;SDS011;10381;53.730;10.010;2023-03-23T10:56:41;24.58;;;16.23;;
20443;SDS011;10381;53.730;10.010;2023-03-23T11:00:46;19.13;;;15.40;;
20443;SDS011;10381;53.730;10.010;2023-03-23T11:04:58;22.90;;;15.90;;
20443;SDS011;10381;53.730;10.010;2023-03-23T11:09:03;23.58;;;16.25;;
20443;SDS011;10381;53.730;10.010;2023-03-23T11:13:12;23.17;;;18.15;;
20443;SDS011;10381;53.730;10.010;2023-03-23T11:17:25;24.25;;;16.67;;
20443;SDS011;10381;53.730;10.010;2023-03-23T11:21:26;23.33;;;17.65;;
20443;SDS011;10381;53.730;10.010;2023-03-23T11:25:27;25.65;;;16.67;;
20443;SDS011;10381;53.730;10.010;2023-03-23T11:29:28;22.45;;;16.35;;
20443;SDS011;10381;53.730;10.010;2023-03-23T11:33:35;20.33;;;15.65;;
20443;SDS011;10381;53.730;10.010;2023-03-23T11:37:56;20.98;;;16.60;;
20443;SDS011;10381;53.730;10.010;2023-03-23T11:42:02;23.60;;;16.80;;
20443;SDS011;10381;53.730;10.010;2023-03-23T11:46:32;23.73;;;16.50;;
20443;SDS011;10381;53.730;10.010;2023-03-23T11:50:44;19.30;;;15.40;;
20443;SDS011;10381;53.730;10.010;2023-03-23T11:54:57;30.80;;;15.30;;
20443;SDS011;10381;53.730;10.010;2023-03-23T11:59:12;19.30;;;16.02;;
20443;SDS011;10381;53.730;10.010;2023-03-23T12:03:14;26.95;;;15.07;;
20443;SDS011;10381;53.730;10.010;2023-03-23T12:12:04;31.33;;;14.88;;
20443;SDS011;10381;53.730;10.010;2023-03-23T12:16:15;17.25;;;14.90;;
20443;SDS011;10381;53.730;10.010;2023-03-23T12:20:27;25.25;;;14.88;;
20443;SDS011;10381;53.730;10.010;2023-03-23T12:24:50;26.50;;;15.40;;
20443;SDS011;10381;53.730;10.010;2023-03-23T12:29:25;20.17;;;15.68;;
20443;SDS011;10381;53.730;10.010;2023-03-23T12:51:33;23.25;;;16.60;;
20443;SDS011;10381;53.730;10.010;2023-03-23T12:59:52;24.17;;;16.40;;
20443;SDS011;10381;53.730;10.010;2023-03-23T13:04:10;22.35;;;15.02;;
20443;SDS011;10381;53.730;10.010;2023-03-23T13:08:29;26.30;;;16.30;;
20443;SDS011;10381;53.730;10.010;2023-03-23T13:12:33;22.23;;;15.80;;
20443;SDS011;10381;53.730;10.010;2023-03-23T13:20:54;31.58;;;16.95;;
20443;SDS011;10381;53.730;10.010;2023-03-23T13:25:02;22.25;;;17.80;;
20443;SDS011;10381;53.730;10.010;2023-03-23T13:29:15;25.42;;;16.75;;
20443;SDS011;10381;53.730;10.010;2023-03-23T13:33:19;26.05;;;16.73;;
20443;SDS011;10381;53.730;10.010;2023-03-23T13:37:22;22.30;;;17.00;;
20443;SDS011;10381;53.730;10.010;2023-03-23T13:41:26;23.45;;;16.40;;
20443;SDS011;10381;53.730;10.010;2023-03-23T13:45:45;18.27;;;16.48;;
20443;SDS011;10381;53.730;10.010;2023-03-23T13:49:55;26.50;;;23.80;;
20443;SDS011;10381;53.730;10.010;2023-03-23T13:58:31;169.70;;;153.85;;
20443;SDS011;10381;53.730;10.010;2023-03-23T14:02:38;177.48;;;161.27;;
20443;SDS011;10381;53.730;10.010;2023-03-23T14:06:42;195.43;;;177.65;;
20443;SDS011;10381;53.730;10.010;2023-03-23T14:10:44;183.23;;;165.80;;
20443;SDS011;10381;53.730;10.010;2023-03-23T14:14:56;168.32;;;153.07;;
20443;SDS011;10381;53.730;10.010;2023-03-23T14:19:15;181.93;;;165.20;;
20443;SDS011;10381;53.730;10.010;2023-03-23T14:23:31;190.73;;;173.50;;
20443;SDS011;10381;53.730;10.010;2023-03-23T14:27:33;218.45;;;199.25;;
20443;SDS011;10381;53.730;10.010;2023-03-23T14:31:34;128.10;;;116.43;;
20443;SDS011;10381;53.730;10.010;2023-03-23T14:35:36;68.53;;;62.10;;
20443;SDS011;10381;53.730;10.010;2023-03-23T14:39:39;51.67;;;45.28;;
20443;SDS011;10381;53.730;10.010;2023-03-23T14:43:39;36.25;;;32.50;;
20443;SDS011;10381;53.730;10.010;2023-03-23T14:47:42;29.05;;;26.15;;
20443;SDS011;10381;53.730;10.010;2023-03-23T14:51:47;24.33;;;21.88;;
20443;SDS011;10381;53.730;10.010;2023-03-23T14:55:50;23.23;;;20.88;;
20443;SDS011;10381;53.730;10.010;2023-03-23T14:59:53;22.13;;;19.75;;
20443;SDS011;10381;53.730;10.010;2023-03-23T15:03:58;20.83;;;18.88;;
20443;SDS011;10381;53.730;10.010;2023-03-23T15:08:15;21.17;;;17.73;;
20443;SDS011;10381;53.730;10.010;2023-03-23T15:12:22;23.25;;;17.73;;
20443;SDS011;10381;53.730;10.010;2023-03-23T15:16:27;19.25;;;17.42;;
20443;SDS011;10381;53.730;10.010;2023-03-23T15:20:31;19.65;;;17.50;;
20443;SDS011;10381;53.730;10.010;2023-03-23T15:24:39;26.05;;;19.88;;
20443;SDS011;10381;53.730;10.010;2023-03-23T15:28:41;19.70;;;17.65;;
20443;SDS011;10381;53.730;10.010;2023-03-23T15:32:42;22.67;;;17.07;;
20443;SDS011;10381;53.730;10.010;2023-03-23T15:36:45;20.08;;;16.27;;
20443;SDS011;10381;53.730;10.010;2023-03-23T15:40:48;24.25;;;16.95;;
20443;SDS011;10381;53.730;10.010;2023-03-23T15:45:04;19.77;;;15.95;;
20443;SDS011;10381;53.730;10.010;2023-03-23T15:49:16;20.17;;;16.25;;
20443;SDS011;10381;53.730;10.010;2023-03-23T15:53:30;21.88;;;17.15;;
20443;SDS011;10381;53.730;10.010;2023-03-23T15:57:33;19.10;;;17.00;;
20443;SDS011;10381;53.730;10.010;2023-03-23T16:01:33;22.60;;;18.40;;
20443;SDS011;10381;53.730;10.010;2023-03-23T16:05:36;23.08;;;18.73;;
20443;SDS011;10381;53.730;10.010;2023-03-23T16:09:36;20.70;;;18.67;;
20443;SDS011;10381;53.730;10.010;2023-03-23T16:13:37;22.40;;;20.00;;
20443;SDS011;10381;53.730;10.010;2023-03-23T16:17:38;24.45;;;21.60;;
20443;SDS011;10381;53.730;10.010;2023-03-23T16:21:43;27.05;;;24.45;;
20443;SDS011;10381;53.730;10.010;2023-03-23T16:25:46;30.15;;;27.05;;
20443;SDS011;10381;53.730;10.010;2023-03-23T16:29:47;32.55;;;29.30;;
20443;SDS011;10381;53.730;10.010;2023-03-23T16:33:47;35.90;;;32.50;;
20443;SDS011;10381;53.730;10.010;2023-03-23T16:37:49;34.15;;;31.10;;
20443;SDS011;10381;53.730;10.010;2023-03-23T16:41:51;36.47;;;32.97;;
20443;SDS011;10381;53.730;10.010;2023-03-23T16:45:53;36.37;;;32.70;;
20443;SDS011;10381;53.730;10.010;2023-03-23T16:49:55;37.55;;;33.83;;
20443;SDS011;10381;53.730;10.010;2023-03-23T16:53:55;39.72;;;35.55;;
20443;SDS011;10381;53.730;10.010;2023-03-23T16:57:55;49.83;;;44.65;;
20443;SDS011;10381;53.730;10.010;2023-03-23T17:01:56;64.22;;;57.22;;
20443;SDS011;10381;53.730;10.010;2023-03-23T17:06:02;60.20;;;53.92;;
20443;SDS011;10381;53.730;10.010;2023-03-23T17:10:03;67.13;;;58.20;;
20443;SDS011;10381;53.730;10.010;2023-03-23T17:14:05;64.18;;;55.60;;
20443;SDS011;10381;53.730;10.010;2023-03-23T17:18:05;65.70;;;54.23;;
20443;SDS011;10381;53.730;10.010;2023-03-23T17:22:06;64.00;;;56.05;;
20443;SDS011;10381;53.730;10.010;2023-03-23T17:26:06;61.88;;;55.47;;
20443;SDS011;10381;53.730;10.010;2023-03-23T17:30:07;59.40;;;52.95;;
20443;SDS011;10381;53.730;10.010;2023-03-23T17:34:08;60.50;;;51.45;;
20443;SDS011;10381;53.730;10.010;2023-03-23T17:38:08;64.60;;;57.03;;
20443;SDS011;10381;53.730;10.010;2023-03-23T17:42:08;63.88;;;50.28;;
20443;SDS011;10381;53.730;10.010;2023-03-23T17:46:09;55.00;;;49.30;;
20443;SDS011;10381;53.730;10.010;2023-03-23T17:50:09;51.65;;;46.03;;
20443;SDS011;10381;53.730;10.010;2023-03-23T17:54:10;54.42;;;45.17;;
20443;SDS011;10381;53.730;10.010;2023-03-23T17:58:10;49.57;;;43.13;;
20443;SDS011;10381;53.730;10.010;2023-03-23T18:02:11;44.23;;;38.50;;
20443;SDS011;10381;53.730;10.010;2023-03-23T18:06:12;40.42;;;36.38;;
20443;SDS011;10381;53.730;10.010;2023-03-23T18:10:13;46.95;;;38.05;;
20443;SDS011;10381;53.730;10.010;2023-03-23T18:14:13;42.80;;;38.60;;
20443;SDS011;10381;53.730;10.010;2023-03-23T18:18:13;42.90;;;38.30;;
20443;SDS011;10381;53.730;10.010;2023-03-23T18:22:14;44.33;;;39.75;;
20443;SDS011;10381;53.730;10.010;2023-03-23T18:26:14;48.35;;;43.55;;
20443;SDS011;10381;53.730;10.010;2023-03-23T18:30:15;47.47;;;42.75;;
20443;SDS011;10381;53.730;10.010;2023-03-23T18:34:15;55.15;;;49.33;;
20443;SDS011;10381;53.730;10.010;2023-03-23T18:38:16;59.50;;;53.13;;
20443;SDS011;10381;53.730;10.010;2023-03-23T18:42:16;57.85;;;51.85;;
20443;SDS011;10381;53.730;10.010;2023-03-23T18:46:16;69.10;;;53.93;;
20443;SDS011;10381;53.730;10.010;2023-03-23T18:50:16;66.93;;;55.87;;
20443;SDS011;10381;53.730;10.010;2023-03-23T18:54:17;63.80;;;53.40;;
20443;SDS011;10381;53.730;10.010;2023-03-23T18:58:17;62.80;;;54.40;;
20443;SDS011;10381;53.730;10.010;2023-03-23T19:02:19;73.13;;;56.33;;
20443;SDS011;10381;53.730;10.010;2023-03-23T19:06:21;68.30;;;55.80;;
20443;SDS011;10381;53.730;10.010;2023-03-23T19:10:26;63.35;;;54.38;;
20443;SDS011;10381;53.730;10.010;2023-03-23T19:14:27;59.38;;;53.00;;
20443;SDS011;10381;53.730;10.010;2023-03-23T19:18:27;56.27;;;50.27;;
20443;SDS011;10381;53.730;10.010;2023-03-23T19:22:28;55.28;;;49.25;;
20443;SDS011;10381;53.730;10.010;2023-03-23T19:26:32;47.47;;;42.67;;
20443;SDS011;10381;53.730;10.010;2023-03-23T19:30:34;43.40;;;39.30;;
20443;SDS011;10381;53.730;10.010;2023-03-23T19:34:34;46.43;;;37.90;;
20443;SDS011;10381;53.730;10.010;2023-03-23T19:38:35;41.95;;;37.90;;
20443;SDS011;10381;53.730;10.010;2023-03-23T19:42:35;41.47;;;37.57;;
20443;SDS011;10381;53.730;10.010;2023-03-23T19:46:36;43.20;;;38.42;;
20443;SDS011;10381;53.730;10.010;2023-03-23T19:50:36;44.33;;;39.42;;
20443;SDS011;10381;53.730;10.010;2023-03-23T19:54:39;41.35;;;37.28;;
20443;SDS011;10381;53.730;10.010;2023-03-23T19:58:39;39.83;;;36.03;;
20443;SDS011;10381;53.730;10.010;2023-03-23T20:02:39;36.20;;;32.50;;
20443;SDS011;10381;53.730;10.010;2023-03-23T20:06:40;37.80;;;33.70;;
20443;SDS011;10381;53.730;10.010;2023-03-23T20:10:40;41.65;;;37.17;;
20443;SDS011;10381;53.730;10.010;2023-03-23T20:14:41;40.80;;;36.75;;
20443;SDS011;10381;53.730;10.010;2023-03-23T20:18:44;36.65;;;33.05;;
20443;SDS011;10381;53.730;10.010;2023-03-23T20:22:46;41.08;;;36.67;;
20443;SDS011;10381;53.730;10.010;2023-03-23T20:26:46;46.30;;;41.60;;
20443;SDS011;10381;53.730;10.010;2023-03-23T20:30:46;43.22;;;38.92;;
20443;SDS011;10381;53.730;10.010;2023-03-23T20:34:46;48.67;;;43.43;;
20443;SDS011;10381;53.730;10.010;2023-03-23T20:38:48;51.47;;;46.55;;
20443;SDS011;10381;53.730;10.010;2023-03-23T20:42:49;56.33;;;50.60;;
20443;SDS011;10381;53.730;10.010;2023-03-23T20:46:52;51.55;;;45.88;;
20443;SDS011;10381;53.730;10.010;2023-03-23T20:50:53;50.63;;;44.33;;
20443;SDS011;10381;53.730;10.010;2023-03-23T20:54:54;52.25;;;47.00;;
20443;SDS011;10381;53.730;10.010;2023-03-23T20:58:58;54.55;;;44.22;;
20443;SDS011;10381;53.730;10.010;2023-03-23T21:03:27;50.78;;;43.58;;
20443;SDS011;10381;53.730;10.010;2023-03-23T21:07:46;52.00;;;46.58;;
20443;SDS011;10381;53.730;10.010;2023-03-23T21:11:47;47.75;;;42.90;;
20443;SDS011;10381;53.730;10.010;2023-03-23T21:15:48;50.95;;;45.60;;
20443;SDS011;10381;53.730;10.010;2023-03-23T21:19:48;49.38;;;44.05;;
20443;SDS011;10381;53.730;10.010;2023-03-23T21:23:49;49.47;;;43.57;;
20443;SDS011;10381;53.730;10.010;2023-03-23T21:27:51;55.00;;;49.30;;
20443;SDS011;10381;53.730;10.010;2023-03-23T21:31:52;55.72;;;50.00;;
20443;SDS011;10381;53.730;10.010;2023-03-23T21:35:53;58.33;;;52.20;;
20443;SDS011;10381;53.730;10.010;2023-03-23T21:39:54;60.83;;;50.53;;
20443;SDS011;10381;53.730;10.010;2023-03-23T21:43:54;54.55;;;48.72;;
20443;SDS011;10381;53.730;10.010;2023-03-23T21:47:55;54.75;;;48.78;;
20443;SDS011;10381;53.730;10.010;2023-03-23T21:51:57;62.45;;;51.45;;
20443;SDS011;10381;53.730;10.010;2023-03-23T21:55:57;65.03;;;53.60;;
20443;SDS011;10381;53.730;10.010;2023-03-23T21:59:57;58.03;;;51.03;;
20443;SDS011;10381;53.730;10.010;2023-03-23T22:03:57;60.00;;;51.93;;
20443;SDS011;10381;53.730;10.010;2023-03-23T22:07:58;67.43;;;56.47;;
20443;SDS011;10381;53.730;10.010;2023-03-23T22:11:59;67.95;;;56.90;;
20443;SDS011;10381;53.730;10.010;2023-03-23T22:16:00;60.00;;;52.42;;
20443;SDS011;10381;53.730;10.010;2023-03-23T22:20:06;63.10;;;56.17;;
20443;SDS011;10381;53.730;10.010;2023-03-23T22:24:09;66.30;;;57.97;;
20443;SDS011;10381;53.730;10.010;2023-03-23T22:28:10;70.38;;;58.03;;
20443;SDS011;10381;53.730;10.010;2023-03-23T22:32:10;69.40;;;59.47;;
20443;SDS011;10381;53.730;10.010;2023-03-23T22:36:11;74.57;;;64.10;;
20443;SDS011;10381;53.730;10.010;2023-03-23T22:40:11;76.00;;;64.13;;
20443;SDS011;10381;53.730;10.010;2023-03-23T22:44:13;73.38;;;65.45;;
20443;SDS011;10381;53.730;10.010;2023-03-23T22:48:18;78.95;;;65.70;;
20443;SDS011;10381;53.730;10.010;2023-03-23T22:52:18;75.18;;;64.90;;
20443;SDS011;10381;53.730;10.010;2023-03-23T22:56:19;78.18;;;68.63;;
20443;SDS011;10381;53.730;10.010;2023-03-23T23:00:20;82.78;;;72.00;;
20443;SDS011;10381;53.730;10.010;2023-03-23T23:04:20;92.15;;;75.05;;
20443;SDS011;10381;53.730;10.010;2023-03-23T23:08:21;80.53;;;71.70;;
20443;SDS011;10381;53.730;10.010;2023-03-23T23:12:22;89.32;;;68.63;;
20443;SDS011;10381;53.730;10.010;2023-03-23T23:16:23;82.47;;;68.32;;
20443;SDS011;10381;53.730;10.010;2023-03-23T23:20:25;83.95;;;65.95;;
20443;SDS011;10381;53.730;10.010;2023-03-23T23:24:25;81.07;;;67.82;;
20443;SDS011;10381;53.730;10.010;2023-03-23T23:28:26;79.63;;;66.03;;
20443;SDS011;10381;53.730;10.010;2023-03-23T23:32:27;80.18;;;66.20;;
20443;SDS011;10381;53.730;10.010;2023-03-23T23:36:31;77.22;;;64.30;;
20443;SDS011;10381;53.730;10.010;2023-03-23T23:40:32;83.25;;;64.72;;
20443;SDS011;10381;53.730;10.010;2023-03-23T23:44:34;77.35;;;66.07;;
20443;SDS011;10381;53.730;10.010;2023-03-23T23:48:34;75.78;;;64.43;;
20443;SDS011;10381;53.730;10.010;2023-03-23T23:52:35;83.30;;;68.57;;
20443;SDS011;10381;53.730;10.010;2023-03-23T23:56:37;77.10;;;65.25;;
